Time;durP1;ratioP1;P1;durP2;ratioP2;P2;SDS_P1;SDS_P2;PMS_P1;PMS_P2;Temp;Humidity;BMP_temperature;BMP_pressure;BME280_temperature;BME280_humidity;BME280_pressure;Samples;Min_cycle;Max_cycle;Signal;HPM_P1;HPM_P2
2023/12/04 00:02:24;;;;;;;1999.90;999.90;;;-2.90;99.90;;;;;;5056762;28;20432;-73
2023/12/04 00:04:51;;;;;;;1999.90;999.90;;;-2.80;99.90;;;;;;5056897;28;20417;-73
2023/12/04 00:07:18;;;;;;;1999.90;999.90;;;-2.80;99.90;;;;;;5056918;28;20891;-73
2023/12/04 00:09:45;;;;;;;1999.90;999.90;;;-2.80;99.90;;;;;;5057516;28;20444;-74
2023/12/04 00:12:11;;;;;;;1999.90;999.90;;;-2.70;99.90;;;;;;5055607;28;20417;-80
2023/12/04 00:14:38;;;;;;;1999.90;999.90;;;-2.70;99.90;;;;;;5051941;28;20425;-74
2023/12/04 00:17:06;;;;;;;1999.90;999.90;;;-2.70;99.90;;;;;;5056321;28;20433;-73
2023/12/04 00:19:32;;;;;;;1999.90;999.90;;;-2.20;99.90;;;;;;5057290;28;20436;-73
2023/12/04 00:21:59;;;;;;;1999.90;999.90;;;-2.40;99.90;;;;;;5056371;28;20896;-74
2023/12/04 00:24:26;;;;;;;1999.90;999.90;;;-2.40;99.90;;;;;;5055925;28;20479;-73
2023/12/04 00:26:52;;;;;;;1999.90;999.90;;;-2.30;99.90;;;;;;5055645;28;20435;-73
2023/12/04 00:29:19;;;;;;;1999.90;999.90;;;-2.30;99.90;;;;;;5056806;28;20760;-71
2023/12/04 00:31:46;;;;;;;1999.90;999.90;;;-2.20;99.90;;;;;;5056499;28;20445;-73
2023/12/04 00:34:14;;;;;;;1999.90;999.90;;;-2.10;99.90;;;;;;5056114;28;20405;-75
2023/12/04 00:36:41;;;;;;;1999.90;999.90;;;-2.30;99.90;;;;;;5049947;28;20413;-76
2023/12/04 00:39:07;;;;;;;1999.90;999.90;;;-2.10;99.90;;;;;;5056504;28;20541;-73
2023/12/04 00:41:34;;;;;;;1999.90;999.90;;;-2.10;99.90;;;;;;5056673;28;20426;-73
2023/12/04 00:44:01;;;;;;;1999.90;999.90;;;-2.10;99.90;;;;;;5056411;28;20413;-74
2023/12/04 00:46:27;;;;;;;1999.90;999.90;;;-2.10;99.90;;;;;;5055580;28;20425;-75
2023/12/04 00:48:54;;;;;;;1999.90;999.90;;;-1.60;99.90;;;;;;5054727;28;20440;-74
2023/12/04 00:51:22;;;;;;;1999.90;999.90;;;-1.80;99.90;;;;;;5055949;28;20413;-70
2023/12/04 00:53:49;;;;;;;1999.90;999.90;;;-1.70;99.90;;;;;;5056095;28;20450;-73
2023/12/04 00:56:15;;;;;;;1999.90;999.90;;;-1.40;99.90;;;;;;5055735;28;20424;-73
2023/12/04 00:58:42;;;;;;;1999.90;999.90;;;-1.60;99.90;;;;;;5056542;28;20413;-74
2023/12/04 01:01:09;;;;;;;1999.90;999.90;;;-1.60;99.90;;;;;;5055483;28;20413;-74
2023/12/04 01:03:36;;;;;;;1999.90;999.90;;;-1.10;99.90;;;;;;5055428;28;20417;-73
2023/12/04 01:06:02;;;;;;;1999.90;999.90;;;-1.40;99.90;;;;;;5056614;28;20919;-72
2023/12/04 01:08:30;;;;;;;1999.90;999.90;;;-0.80;99.90;;;;;;5056488;28;20475;-75
2023/12/04 01:10:57;;;;;;;1999.90;999.90;;;-1.20;99.90;;;;;;5055388;28;20417;-74
2023/12/04 01:13:23;;;;;;;1999.90;999.90;;;-1.10;99.90;;;;;;5055058;28;20413;-70
2023/12/04 01:15:50;;;;;;;1999.90;999.90;;;-1.00;99.90;;;;;;5046487;28;20407;-74
2023/12/04 01:18:18;;;;;;;1999.90;999.90;;;-1.10;99.90;;;;;;5053404;28;20436;-76
2023/12/04 01:20:44;;;;;;;1999.90;999.90;;;-1.20;99.90;;;;;;5053996;28;20421;-70
2023/12/04 01:23:11;;;;;;;1999.90;999.90;;;-1.20;99.90;;;;;;5054400;28;20463;-77
2023/12/04 01:25:39;;;;;;;1999.90;999.90;;;-1.10;99.90;;;;;;5053599;28;20425;-73
2023/12/04 01:28:05;;;;;;;1999.90;999.90;;;-1.10;99.90;;;;;;5054163;28;20417;-71
2023/12/04 01:30:32;;;;;;;1999.90;999.90;;;-0.70;99.90;;;;;;5054091;28;20760;-74
2023/12/04 01:32:59;;;;;;;1999.90;999.90;;;-0.70;99.90;;;;;;5053179;28;20459;-74
2023/12/04 01:35:26;;;;;;;1999.90;999.90;;;-0.80;99.90;;;;;;5055339;28;20409;-70
2023/12/04 01:37:53;;;;;;;1999.90;999.90;;;-0.90;99.90;;;;;;5054360;28;20409;-73
2023/12/04 01:40:20;;;;;;;1999.90;999.90;;;-1.10;99.90;;;;;;5054979;28;20417;-73
2023/12/04 01:42:48;;;;;;;1999.90;999.90;;;-1.10;99.90;;;;;;5054609;28;20475;-72
2023/12/04 01:45:14;;;;;;;1999.90;999.90;;;-1.10;99.90;;;;;;5053673;28;20918;-76
2023/12/04 01:47:41;;;;;;;1999.90;999.90;;;-1.00;99.90;;;;;;5052363;28;20440;-74
2023/12/04 01:50:09;;;;;;;1999.90;999.90;;;-0.60;99.90;;;;;;5054640;28;20413;-69
2023/12/04 01:52:37;;;;;;;1999.90;999.90;;;-0.40;99.90;;;;;;5053841;28;20891;-74
2023/12/04 01:55:05;;;;;;;1999.90;999.90;;;-0.50;99.90;;;;;;5053695;28;20418;-78
2023/12/04 01:57:31;;;;;;;1999.90;999.90;;;-0.50;99.90;;;;;;5052739;28;20967;-73
2023/12/04 02:00:00;;;;;;;1999.90;999.90;;;-0.50;99.90;;;;;;5053158;28;20456;-74
2023/12/04 02:02:27;;;;;;;1999.90;999.90;;;-0.40;99.90;;;;;;5052790;28;20479;-74
2023/12/04 02:04:56;;;;;;;1999.90;999.90;;;0.10;99.90;;;;;;5054075;28;20444;-73
2023/12/04 02:07:22;;;;;;;1999.90;999.90;;;0.50;99.90;;;;;;5053844;28;20433;-73
2023/12/04 02:09:49;;;;;;;1999.90;999.90;;;0.80;99.90;;;;;;5055725;28;20443;-73
2023/12/04 02:12:16;;;;;;;1999.90;999.90;;;1.50;99.90;;;;;;5055721;28;20471;-79
2023/12/04 02:14:43;;;;;;;1999.90;999.90;;;1.10;99.90;;;;;;5055843;28;20416;-76
2023/12/04 02:17:12;;;;;;;1999.90;999.90;;;1.20;99.90;;;;;;5054476;28;20425;-74
2023/12/04 02:19:38;;;;;;;1999.90;999.90;;;1.10;99.90;;;;;;5056049;28;20409;-75
2023/12/04 02:22:05;;;;;;;1999.90;999.90;;;1.30;99.90;;;;;;5056011;28;20413;-73
2023/12/04 02:24:34;;;;;;;1999.90;999.90;;;1.20;99.90;;;;;;5056096;28;20413;-73
2023/12/04 02:27:11;;;;;;;1999.90;999.90;;;1.30;99.90;;;;;;5055083;28;20425;-77
2023/12/04 02:29:43;;;;;;;1999.90;999.90;;;1.30;99.90;;;;;;5055966;28;20420;-75
2023/12/04 02:32:15;;;;;;;1999.90;999.90;;;1.40;99.90;;;;;;5054704;28;20463;-73
2023/12/04 02:34:43;;;;;;;1999.90;999.90;;;1.30;99.90;;;;;;5055637;28;20421;-74
2023/12/04 02:37:11;;;;;;;1999.90;999.90;;;1.30;99.90;;;;;;5054891;28;20412;-73
2023/12/04 02:39:39;;;;;;;1999.90;999.90;;;1.20;99.90;;;;;;5054248;28;20835;-74
2023/12/04 02:42:07;;;;;;;1999.90;999.90;;;1.20;99.90;;;;;;5054821;28;20413;-74
2023/12/04 02:44:34;;;;;;;1999.90;999.90;;;1.30;99.90;;;;;;5054027;28;20409;-75
2023/12/04 02:47:01;;;;;;;1999.90;999.90;;;1.30;99.90;;;;;;5053105;28;20432;-73
2023/12/04 02:49:28;;;;;;;1999.90;999.90;;;1.40;99.90;;;;;;5057201;28;20899;-78
2023/12/04 02:51:54;;;;;;;1999.90;999.90;;;1.30;99.90;;;;;;5056894;28;20467;-76
2023/12/04 02:54:21;;;;;;;1999.90;999.90;;;1.20;99.90;;;;;;5057609;28;20421;-70
2023/12/04 02:56:49;;;;;;;1999.90;999.90;;;1.20;99.90;;;;;;5058090;28;20412;-75
2023/12/04 02:59:15;;;;;;;1999.90;999.90;;;1.00;99.90;;;;;;5049795;28;20421;-74
2023/12/04 03:01:42;;;;;;;1999.90;999.90;;;1.40;99.90;;;;;;5058122;28;21095;-73
2023/12/04 03:04:09;;;;;;;1999.90;999.90;;;1.00;99.90;;;;;;5059126;28;20424;-76
2023/12/04 03:06:35;;;;;;;1999.90;999.90;;;1.10;99.90;;;;;;5057844;28;20436;-74
2023/12/04 03:09:03;;;;;;;1999.90;999.90;;;0.90;99.90;;;;;;5059169;28;20413;-74
2023/12/04 03:11:30;;;;;;;1999.90;999.90;;;0.90;99.90;;;;;;5059248;28;20413;-74
2023/12/04 03:14:01;;;;;;;1999.90;999.90;;;0.80;99.90;;;;;;5057902;28;20474;-77
2023/12/04 03:16:27;;;;;;;1999.90;999.90;;;0.80;99.90;;;;;;5058416;28;20498;-76
2023/12/04 03:18:54;;;;;;;1999.90;999.90;;;0.90;99.90;;;;;;5059210;28;20417;-74
2023/12/04 03:21:20;;;;;;;1999.90;999.90;;;1.40;99.90;;;;;;5059628;28;20413;-74
2023/12/04 03:23:47;;;;;;;1999.90;999.90;;;1.20;99.90;;;;;;5055753;28;20908;-74
2023/12/04 03:26:14;;;;;;;1999.90;999.90;;;0.90;99.90;;;;;;5050398;28;20432;-78
2023/12/04 03:28:40;;;;;;;1999.90;999.90;;;0.90;99.90;;;;;;5056031;28;20410;-75
2023/12/04 03:31:09;;;;;;;1999.90;999.90;;;0.80;99.90;;;;;;5055552;28;20483;-75
2023/12/04 03:33:35;;;;;;;1999.90;999.90;;;0.90;99.90;;;;;;5056630;28;20413;-74
2023/12/04 03:36:02;;;;;;;1999.90;999.90;;;0.90;99.90;;;;;;5050523;28;20405;-74
2023/12/04 03:38:29;;;;;;;1999.90;999.90;;;0.90;99.90;;;;;;5057015;28;20418;-74
2023/12/04 03:40:56;;;;;;;1999.90;999.90;;;0.90;99.90;;;;;;5057468;28;20462;-74
2023/12/04 03:43:22;;;;;;;1999.90;999.90;;;1.00;99.90;;;;;;5057681;28;20421;-73
2023/12/04 03:45:49;;;;;;;1999.90;999.90;;;1.00;99.90;;;;;;5053575;28;21023;-75
2023/12/04 03:48:17;;;;;;;1999.90;999.90;;;1.10;99.90;;;;;;5057607;28;20421;-74
2023/12/04 03:50:44;;;;;;;1999.90;999.90;;;1.30;99.90;;;;;;5060628;28;20417;-79
2023/12/04 03:53:11;;;;;;;1999.90;999.90;;;1.00;99.90;;;;;;5062580;28;20420;-74
2023/12/04 03:55:37;;;;;;;1999.90;999.90;;;1.10;99.90;;;;;;5059557;28;20418;-76
2023/12/04 03:58:04;;;;;;;1999.90;999.90;;;1.00;99.90;;;;;;5058665;28;20413;-72
2023/12/04 04:00:31;;;;;;;1999.90;999.90;;;1.10;99.90;;;;;;5057942;28;20760;-74
2023/12/04 04:02:58;;;;;;;1999.90;999.90;;;1.20;99.90;;;;;;5057124;28;20461;-77
2023/12/04 04:05:26;;;;;;;1999.90;999.90;;;1.20;99.90;;;;;;5058626;28;20413;-74
2023/12/04 04:07:52;;;;;;;1999.90;999.90;;;1.80;99.90;;;;;;5059046;28;20426;-76
2023/12/04 04:10:19;;;;;;;1999.90;999.90;;;1.30;99.90;;;;;;5058415;28;20471;-74
2023/12/04 04:12:46;;;;;;;1999.90;999.90;;;1.40;99.90;;;;;;5058685;28;20500;-75
2023/12/04 04:15:12;;;;;;;1999.90;999.90;;;1.50;99.90;;;;;;5058788;28;20420;-74
2023/12/04 04:17:39;;;;;;;1999.90;999.90;;;1.50;99.90;;;;;;5058135;28;20451;-74
2023/12/04 04:20:08;;;;;;;1999.90;999.90;;;1.50;99.90;;;;;;5059093;28;20490;-74
2023/12/04 04:22:37;;;;;;;1999.90;999.90;;;1.50;99.90;;;;;;5059385;28;20435;-73
2023/12/04 04:25:05;;;;;;;1999.90;999.90;;;1.50;99.90;;;;;;5058448;28;20413;-78
2023/12/04 04:27:32;;;;;;;1999.90;999.90;;;1.60;99.90;;;;;;5057991;28;20429;-74
2023/12/04 04:29:58;;;;;;;1999.90;999.90;;;1.70;99.90;;;;;;5057830;28;20413;-73
2023/12/04 04:32:25;;;;;;;1999.90;999.90;;;1.80;99.90;;;;;;5054944;28;20459;-74
2023/12/04 04:34:52;;;;;;;1999.90;999.90;;;1.90;99.90;;;;;;5057428;28;20417;-74
2023/12/04 04:37:18;;;;;;;1999.90;999.90;;;1.80;99.90;;;;;;5057226;28;20786;-74
2023/12/04 04:39:46;;;;;;;1999.90;999.90;;;1.60;99.90;;;;;;5057244;28;20463;-74
2023/12/04 04:42:13;;;;;;;1999.90;999.90;;;1.60;99.90;;;;;;5056622;28;20459;-74
2023/12/04 04:44:40;;;;;;;1999.90;999.90;;;1.60;99.90;;;;;;5056656;28;20799;-74
2023/12/04 04:47:07;;;;;;;1999.90;999.90;;;1.60;99.90;;;;;;5054330;28;20846;-75
2023/12/04 04:49:34;;;;;;;1999.90;999.90;;;1.50;99.90;;;;;;5055536;28;20417;-75
2023/12/04 04:52:00;;;;;;;1999.90;999.90;;;1.60;99.90;;;;;;5055376;28;20827;-78
2023/12/04 04:54:27;;;;;;;1999.90;999.90;;;1.20;99.90;;;;;;5056204;28;20414;-74
2023/12/04 04:56:55;;;;;;;1999.90;999.90;;;1.20;99.90;;;;;;5055343;28;20423;-72
2023/12/04 04:59:22;;;;;;;1999.90;999.90;;;1.00;99.90;;;;;;5056721;28;20405;-74
2023/12/04 05:01:48;;;;;;;1999.90;999.90;;;1.40;99.90;;;;;;5054987;28;20433;-73
2023/12/04 05:04:15;;;;;;;1999.90;999.90;;;0.80;99.90;;;;;;5057261;28;20475;-74
2023/12/04 05:06:42;;;;;;;1999.90;999.90;;;1.20;99.90;;;;;;5057065;28;20429;-76
2023/12/04 05:09:08;;;;;;;1999.90;999.90;;;1.20;99.90;;;;;;5057669;28;20471;-75
2023/12/04 05:11:35;;;;;;;1999.90;999.90;;;1.40;99.90;;;;;;5056577;28;20417;-74
2023/12/04 05:14:03;;;;;;;1999.90;999.90;;;1.40;99.90;;;;;;5056399;28;20413;-77
2023/12/04 05:16:29;;;;;;;1999.90;999.90;;;1.50;99.90;;;;;;5055600;28;20637;-74
2023/12/04 05:18:58;;;;;;;1999.90;999.90;;;1.40;99.90;;;;;;5055903;28;21329;-79
2023/12/04 05:21:24;;;;;;;1999.90;999.90;;;1.50;99.90;;;;;;5056318;28;20413;-74
2023/12/04 05:23:51;;;;;;;1999.90;999.90;;;1.40;99.90;;;;;;5056677;28;20413;-74
2023/12/04 05:26:18;;;;;;;1999.90;999.90;;;1.50;99.90;;;;;;5056463;28;20409;-74
2023/12/04 05:28:44;;;;;;;1999.90;999.90;;;2.00;99.90;;;;;;5057085;28;20421;-76
2023/12/04 05:31:12;;;;;;;1999.90;999.90;;;1.60;99.90;;;;;;5055435;28;20918;-74
2023/12/04 05:33:39;;;;;;;1999.90;999.90;;;1.70;99.90;;;;;;5055375;28;20414;-77
2023/12/04 05:36:07;;;;;;;1999.90;999.90;;;1.80;99.90;;;;;;5055322;28;20413;-75
2023/12/04 05:38:34;;;;;;;1999.90;999.90;;;1.90;99.90;;;;;;5054156;28;20445;-75
2023/12/04 05:41:00;;;;;;;1999.90;999.90;;;2.10;99.90;;;;;;5055885;28;20515;-74
2023/12/04 05:43:27;;;;;;;1999.90;999.90;;;2.00;99.90;;;;;;5056914;28;20421;-74
2023/12/04 05:45:54;;;;;;;1999.90;999.90;;;2.00;99.90;;;;;;5053346;28;20429;-76
2023/12/04 05:48:22;;;;;;;1999.90;999.90;;;1.90;99.90;;;;;;5055914;28;20958;-74
2023/12/04 05:50:48;;;;;;;1999.90;999.90;;;1.80;99.90;;;;;;5056191;28;20417;-73
2023/12/04 05:53:15;;;;;;;1999.90;999.90;;;1.80;99.90;;;;;;5055494;28;20767;-74
2023/12/04 05:55:41;;;;;;;1999.90;999.90;;;1.80;99.90;;;;;;5056808;28;20421;-74
2023/12/04 05:58:08;;;;;;;1999.90;999.90;;;1.70;99.90;;;;;;5055896;28;20500;-74
2023/12/04 06:00:35;;;;;;;1999.90;999.90;;;1.70;99.90;;;;;;5055113;28;20474;-74
2023/12/04 06:03:01;;;;;;;1999.90;999.90;;;1.70;99.90;;;;;;5055924;28;20910;-73
2023/12/04 06:05:29;;;;;;;1999.90;999.90;;;1.60;99.90;;;;;;5056282;28;20413;-72
2023/12/04 06:07:57;;;;;;;1999.90;999.90;;;1.60;99.90;;;;;;5055523;28;20502;-74
2023/12/04 06:10:24;;;;;;;1999.90;999.90;;;1.60;99.90;;;;;;5054323;28;20895;-74
2023/12/04 06:12:51;;;;;;;1999.90;999.90;;;1.60;99.90;;;;;;5053260;28;20429;-76
2023/12/04 06:15:17;;;;;;;1999.90;999.90;;;1.60;99.90;;;;;;5055406;28;20429;-74
2023/12/04 06:17:43;;;;;;;1999.90;999.90;;;1.60;99.90;;;;;;5055376;28;20490;-74
2023/12/04 06:20:12;;;;;;;1999.90;999.90;;;1.60;99.90;;;;;;5055531;28;20420;-73
2023/12/04 06:22:40;;;;;;;1999.90;999.90;;;1.60;99.90;;;;;;5055228;28;20440;-74
2023/12/04 06:25:09;;;;;;;1999.90;999.90;;;1.60;99.90;;;;;;5053650;28;20479;-73
2023/12/04 06:27:36;;;;;;;1999.90;999.90;;;1.70;99.90;;;;;;5055708;28;20486;-73
2023/12/04 06:30:03;;;;;;;1999.90;999.90;;;1.50;99.90;;;;;;5052819;28;20410;-71
2023/12/04 06:32:30;;;;;;;1999.90;999.90;;;1.60;99.90;;;;;;5055172;28;20444;-73
2023/12/04 06:34:57;;;;;;;1999.90;999.90;;;1.50;99.90;;;;;;5055499;28;20487;-74
2023/12/04 06:37:25;;;;;;;1999.90;999.90;;;1.60;99.90;;;;;;5055543;28;20410;-74
2023/12/04 06:39:54;;;;;;;1999.90;999.90;;;1.50;99.90;;;;;;5054697;28;20418;-77
2023/12/04 06:42:21;;;;;;;1999.90;999.90;;;1.50;99.90;;;;;;5054589;28;20793;-74
2023/12/04 06:44:48;;;;;;;1999.90;999.90;;;1.50;99.90;;;;;;5055712;28;20413;-74
2023/12/04 06:47:23;;;;;;;1999.90;999.90;;;1.50;99.90;;;;;;5056033;28;20471;-77
2023/12/04 06:49:49;;;;;;;1999.90;999.90;;;1.50;99.90;;;;;;5055959;28;20417;-74
2023/12/04 06:52:16;;;;;;;1999.90;999.90;;;1.60;99.90;;;;;;5055699;28;20450;-74
2023/12/04 06:54:43;;;;;;;1999.90;999.90;;;1.60;99.90;;;;;;5053758;28;21149;-74
2023/12/04 06:57:11;;;;;;;1999.90;999.90;;;1.60;99.90;;;;;;5053843;28;20879;-82
2023/12/04 06:59:37;;;;;;;1999.90;999.90;;;1.90;99.90;;;;;;5054855;28;20411;-77
2023/12/04 07:02:05;;;;;;;1999.90;999.90;;;1.60;99.90;;;;;;5054501;28;20424;-74
2023/12/04 07:04:32;;;;;;;1999.90;999.90;;;1.70;99.90;;;;;;5046528;28;20572;-75
2023/12/04 07:07:04;;;;;;;1999.90;999.90;;;1.60;99.90;;;;;;5053140;28;20429;-74
2023/12/04 07:09:31;;;;;;;1999.90;999.90;;;1.60;99.90;;;;;;5054817;28;20417;-74
2023/12/04 07:11:58;;;;;;;1999.90;999.90;;;1.60;99.90;;;;;;5051905;28;20448;-74
2023/12/04 07:14:26;;;;;;;1999.90;999.90;;;1.60;99.90;;;;;;5052468;28;20433;-76
2023/12/04 07:16:53;;;;;;;1999.90;999.90;;;1.60;99.90;;;;;;5052440;28;20433;-74
2023/12/04 07:19:19;;;;;;;1999.90;999.90;;;1.70;99.90;;;;;;5054504;28;20427;-74
2023/12/04 07:21:46;;;;;;;1999.90;999.90;;;1.70;99.90;;;;;;5054420;28;20421;-73
2023/12/04 07:24:13;;;;;;;1999.90;999.90;;;1.70;99.90;;;;;;5054488;28;20464;-76
2023/12/04 07:26:40;;;;;;;1999.90;999.90;;;1.80;99.90;;;;;;5053343;28;20451;-74
2023/12/04 07:29:07;;;;;;;1999.90;999.90;;;1.90;99.90;;;;;;5041806;28;20433;-75
2023/12/04 07:31:35;;;;;;;1999.90;999.90;;;2.20;99.90;;;;;;5052550;28;20439;-76
2023/12/04 07:34:02;;;;;;;1999.90;999.90;;;2.00;99.90;;;;;;5053856;28;20810;-75
2023/12/04 07:36:29;;;;;;;1999.90;999.90;;;2.00;99.90;;;;;;5055593;28;20421;-74
2023/12/04 07:38:55;;;;;;;1999.90;999.90;;;2.00;99.90;;;;;;5053044;28;20426;-74
2023/12/04 07:41:22;;;;;;;1999.90;999.90;;;1.90;99.90;;;;;;5056302;28;20409;-74
2023/12/04 07:43:55;;;;;;;1999.90;999.90;;;1.90;99.90;;;;;;5055445;28;20409;-74
2023/12/04 07:46:22;;;;;;;1999.90;999.90;;;2.10;99.90;;;;;;5053918;28;20508;-74
2023/12/04 07:48:50;;;;;;;1999.90;999.90;;;2.30;99.90;;;;;;5054830;28;20430;-75
2023/12/04 07:51:16;;;;;;;1999.90;999.90;;;2.30;99.90;;;;;;5055939;28;20414;-76
2023/12/04 07:53:43;;;;;;;1999.90;999.90;;;2.30;99.90;;;;;;5055226;28;20410;-75
2023/12/04 07:56:12;;;;;;;1999.90;999.90;;;2.30;99.90;;;;;;5054524;28;20409;-74
2023/12/04 07:58:39;;;;;;;1999.90;999.90;;;2.40;99.90;;;;;;5053661;28;20941;-81
2023/12/04 08:01:06;;;;;;;1999.90;999.90;;;2.50;99.90;;;;;;5055267;28;20416;-74
2023/12/04 08:03:33;;;;;;;1999.90;999.90;;;2.30;99.90;;;;;;5055734;28;20416;-75
2023/12/04 08:06:01;;;;;;;1999.90;999.90;;;2.50;99.90;;;;;;5046866;28;20417;-71
2023/12/04 08:08:28;;;;;;;1999.90;999.90;;;2.50;99.90;;;;;;5054037;28;20472;-74
2023/12/04 08:10:55;;;;;;;1999.90;999.90;;;2.50;99.90;;;;;;5055715;28;20468;-74
2023/12/04 08:13:21;;;;;;;1999.90;999.90;;;2.80;99.90;;;;;;5055551;28;20824;-74
2023/12/04 08:15:48;;;;;;;1999.90;999.90;;;2.70;99.90;;;;;;5052975;28;20429;-75
2023/12/04 08:18:15;;;;;;;1999.90;999.90;;;2.90;99.90;;;;;;5055725;28;20487;-75
2023/12/04 08:20:42;;;;;;;1999.90;999.90;;;2.80;99.90;;;;;;5053183;28;20417;-74
2023/12/04 08:23:10;;;;;;;1999.90;999.90;;;2.90;99.90;;;;;;5056360;28;20421;-76
2023/12/04 08:25:38;;;;;;;1999.90;999.90;;;3.00;99.90;;;;;;5056231;28;20463;-76
2023/12/04 08:28:05;;;;;;;1999.90;999.90;;;2.80;99.90;;;;;;5051914;28;20435;-71
2023/12/04 08:30:32;;;;;;;1999.90;999.90;;;2.50;99.90;;;;;;5054403;28;20418;-72
2023/12/04 08:32:59;;;;;;;1999.90;999.90;;;2.70;99.90;;;;;;5055368;28;20554;-78
2023/12/04 08:35:25;;;;;;;1999.90;999.90;;;2.80;99.90;;;;;;5055491;28;20413;-74
2023/12/04 08:37:52;;;;;;;1999.90;999.90;;;3.00;99.90;;;;;;5054852;28;20463;-74
2023/12/04 08:40:20;;;;;;;1999.90;999.90;;;3.10;99.90;;;;;;5054175;28;20421;-74
2023/12/04 08:42:47;;;;;;;1999.90;999.90;;;3.10;99.90;;;;;;5052648;28;20409;-70
2023/12/04 08:45:23;;;;;;;1999.90;999.90;;;3.20;99.90;;;;;;5054349;28;20937;-74
2023/12/04 08:47:49;;;;;;;1999.90;999.90;;;3.40;99.90;;;;;;5052301;28;20482;-77
2023/12/04 08:50:16;;;;;;;1999.90;999.90;;;3.20;99.90;;;;;;5054187;28;20449;-74
2023/12/04 08:52:43;;;;;;;1999.90;999.90;;;3.30;99.90;;;;;;5054494;28;20421;-74
2023/12/04 08:55:11;;;;;;;1999.90;999.90;;;3.00;99.90;;;;;;5047596;28;20440;-77
2023/12/04 08:57:39;;;;;;;1999.90;999.90;;;3.10;99.90;;;;;;5052956;28;20516;-75
2023/12/04 09:00:08;;;;;;;1999.90;999.90;;;3.30;99.90;;;;;;5053108;28;20437;-78
2023/12/04 09:02:34;;;;;;;1999.90;999.90;;;2.90;99.90;;;;;;5053075;28;20429;-75
2023/12/04 09:05:01;;;;;;;1999.90;999.90;;;2.90;99.90;;;;;;5053159;28;20463;-73
2023/12/04 09:07:28;;;;;;;1999.90;999.90;;;3.00;99.90;;;;;;5052624;28;20456;-74
2023/12/04 09:09:55;;;;;;;1999.90;999.90;;;3.10;99.90;;;;;;5052729;28;20413;-73
2023/12/04 09:12:22;;;;;;;1999.90;999.90;;;3.10;99.90;;;;;;5053124;28;20449;-73
2023/12/04 09:14:51;;;;;;;1999.90;999.90;;;3.20;99.90;;;;;;5050860;28;20433;-76
2023/12/04 09:17:17;;;;;;;1999.90;999.90;;;3.20;99.90;;;;;;5048242;28;20949;-73
2023/12/04 09:19:44;;;;;;;1999.90;999.90;;;3.30;99.90;;;;;;5052679;28;20417;-74
2023/12/04 09:22:11;;;;;;;1999.90;999.90;;;3.30;99.90;;;;;;5052948;28;20439;-73
2023/12/04 09:24:38;;;;;;;1999.90;999.90;;;3.40;99.90;;;;;;5052969;28;20410;-76
2023/12/04 09:27:06;;;;;;;1999.90;999.90;;;3.50;99.90;;;;;;5044500;28;20508;-74
2023/12/04 09:29:33;;;;;;;1999.90;999.90;;;3.60;99.90;;;;;;5052367;28;21038;-74
2023/12/04 09:32:01;;;;;;;1999.90;999.90;;;3.70;99.90;;;;;;5053844;28;20510;-76
2023/12/04 09:34:28;;;;;;;1999.90;999.90;;;3.80;99.90;;;;;;5053442;28;20413;-79
2023/12/04 09:36:55;;;;;;;1999.90;999.90;;;3.80;99.90;;;;;;5053035;28;20413;-74
2023/12/04 09:39:21;;;;;;;1999.90;999.90;;;3.80;99.90;;;;;;5052366;28;20818;-74
2023/12/04 09:41:48;;;;;;;1999.90;999.90;;;3.80;99.90;;;;;;5051458;28;20945;-76
2023/12/04 09:44:16;;;;;;;1999.90;999.90;;;3.70;99.90;;;;;;5052392;28;20467;-75
2023/12/04 09:46:43;;;;;;;1999.90;999.90;;;3.60;99.90;;;;;;5051356;28;20471;-74
2023/12/04 09:49:12;;;;;;;1999.90;999.90;;;3.70;99.90;;;;;;5044773;28;21027;-74
2023/12/04 09:51:39;;;;;;;1999.90;999.90;;;3.90;99.90;;;;;;5052671;28;20478;-74
2023/12/04 09:54:06;;;;;;;1999.90;999.90;;;3.30;99.90;;;;;;5053248;28;20810;-76
2023/12/04 09:56:34;;;;;;;1999.90;999.90;;;3.20;99.90;;;;;;5052311;28;20808;-74
2023/12/04 09:59:01;;;;;;;1999.90;999.90;;;3.50;99.90;;;;;;5051533;28;20437;-75
2023/12/04 10:01:30;;;;;;;1999.90;999.90;;;3.40;99.90;;;;;;5051932;28;20903;-74
2023/12/04 10:03:58;;;;;;;1999.90;999.90;;;3.40;99.90;;;;;;5051991;28;20484;-73
2023/12/04 10:06:28;;;;;;;1999.90;999.90;;;3.30;99.90;;;;;;5051469;28;20417;-71
2023/12/04 10:08:57;;;;;;;1999.90;999.90;;;3.30;99.90;;;;;;5051748;28;20517;-74
2023/12/04 10:11:23;;;;;;;1999.90;999.90;;;3.70;99.90;;;;;;5050573;28;20429;-74
2023/12/04 10:13:51;;;;;;;1999.90;999.90;;;3.60;99.90;;;;;;5050988;28;20439;-74
2023/12/04 10:16:32;;;;;;;1999.90;999.90;;;3.70;99.90;;;;;;5052396;28;20413;-74
2023/12/04 10:19:15;;;;;;;1999.90;999.90;;;3.90;99.90;;;;;;5051562;28;20436;-74
2023/12/04 10:21:43;;;;;;;1999.90;999.90;;;3.80;99.90;;;;;;5052053;28;20453;-74
2023/12/04 10:24:10;;;;;;;1999.90;999.90;;;3.80;99.90;;;;;;5051445;28;20424;-74
2023/12/04 10:26:37;;;;;;;1999.90;999.90;;;3.60;99.90;;;;;;5047541;28;20985;-74
2023/12/04 10:29:04;;;;;;;1999.90;999.90;;;3.70;99.90;;;;;;5051941;28;20486;-74
2023/12/04 10:31:34;;;;;;;1999.90;999.90;;;3.80;99.90;;;;;;5051882;28;20417;-76
2023/12/04 10:34:01;;;;;;;1999.90;999.90;;;4.00;99.90;;;;;;5051214;28;20455;-73
2023/12/04 10:36:27;;;;;;;1999.90;999.90;;;4.10;99.90;;;;;;5051221;28;20413;-76
2023/12/04 10:39:00;;;;;;;1999.90;999.90;;;4.10;99.90;;;;;;5051921;28;20837;-74
2023/12/04 10:41:27;;;;;;;1999.90;999.90;;;4.30;99.90;;;;;;5050351;28;20429;-71
2023/12/04 10:43:57;;;;;;;1999.90;999.90;;;4.20;99.90;;;;;;5052280;28;20464;-73
2023/12/04 10:46:25;;;;;;;1999.90;999.90;;;4.30;99.90;;;;;;5051998;28;20409;-73
2023/12/04 10:48:52;;;;;;;1999.90;999.90;;;4.30;99.90;;;;;;5050183;28;20425;-73
2023/12/04 10:51:21;;;;;;;1999.90;999.90;;;4.30;99.90;;;;;;5051607;28;20436;-74
2023/12/04 10:53:49;;;;;;;1999.90;999.90;;;4.20;99.90;;;;;;5051167;28;20441;-73
2023/12/04 10:56:20;;;;;;;1999.90;999.90;;;4.00;99.90;;;;;;5050970;28;20500;-74
2023/12/04 10:58:51;;;;;;;1999.90;999.90;;;4.10;99.90;;;;;;5052101;28;20406;-73
2023/12/04 11:01:20;;;;;;;1999.90;999.90;;;3.90;99.90;;;;;;5052830;28;20827;-72
2023/12/04 11:03:49;;;;;;;1999.90;999.90;;;3.90;99.90;;;;;;5051805;28;20420;-75
2023/12/04 11:06:19;;;;;;;1999.90;999.90;;;3.80;99.90;;;;;;5052304;28;20914;-73
2023/12/04 11:08:50;;;;;;;1999.90;999.90;;;3.90;99.90;;;;;;5051514;28;20425;-73
2023/12/04 11:11:26;;;;;;;1999.90;999.90;;;4.20;99.90;;;;;;5055078;28;20417;-77
2023/12/04 11:13:57;;;;;;;1999.90;999.90;;;4.40;99.90;;;;;;5054486;28;20413;-72
2023/12/04 11:16:30;;;;;;;1999.90;999.90;;;4.30;99.90;;;;;;5054934;28;20421;-75
2023/12/04 11:19:04;;;;;;;1999.90;999.90;;;4.40;99.90;;;;;;5054522;28;20829;-73
2023/12/04 11:21:33;;;;;;;1999.90;999.90;;;4.60;99.90;;;;;;5055400;28;20445;-73
2023/12/04 11:24:00;;;;;;;1999.90;999.90;;;4.60;99.90;;;;;;5053608;28;20441;-75
2023/12/04 11:26:29;;;;;;;1999.90;999.90;;;4.40;99.90;;;;;;5054420;28;20413;-75
2023/12/04 11:28:57;;;;;;;1999.90;999.90;;;4.30;99.90;;;;;;5055218;28;20433;-73
2023/12/04 11:31:24;;;;;;;1999.90;999.90;;;4.40;99.90;;;;;;5055224;28;20479;-73
2023/12/04 11:33:51;;;;;;;1999.90;999.90;;;4.50;99.90;;;;;;5054965;28;20467;-74
2023/12/04 11:36:18;;;;;;;1999.90;999.90;;;4.60;99.90;;;;;;5054733;28;20444;-74
2023/12/04 11:38:47;;;;;;;1999.90;999.90;;;4.40;99.90;;;;;;5052867;28;21056;-76
2023/12/04 11:41:17;;;;;;;1999.90;999.90;;;4.90;99.90;;;;;;5053677;28;20524;-73
2023/12/04 11:43:46;;;;;;;1999.90;999.90;;;4.50;99.90;;;;;;5054973;28;20958;-74
2023/12/04 11:46:20;;;;;;;1999.90;999.90;;;4.60;99.90;;;;;;5054766;28;20500;-74
2023/12/04 11:48:48;;;;;;;1999.90;999.90;;;4.50;99.90;;;;;;5054065;28;20448;-73
2023/12/04 11:51:36;;;;;;;1999.90;999.90;;;4.80;99.90;;;;;;5055536;28;20441;-73
2023/12/04 11:54:04;;;;;;;1999.90;999.90;;;4.90;99.90;;;;;;5053897;28;20831;-75
2023/12/04 11:56:31;;;;;;;1999.90;999.90;;;4.90;99.90;;;;;;5055814;28;20417;-74
2023/12/04 11:59:04;;;;;;;1999.90;999.90;;;4.20;99.90;;;;;;5055656;28;20413;-76
2023/12/04 12:01:34;;;;;;;1999.90;999.90;;;4.10;99.90;;;;;;5056145;28;20417;-68
2023/12/04 12:04:02;;;;;;;1999.90;999.90;;;3.70;99.90;;;;;;5057572;28;20409;-71
2023/12/04 12:06:28;;;;;;;1999.90;999.90;;;3.20;99.90;;;;;;5056758;28;20487;-69
2023/12/04 12:08:57;;;;;;;1999.90;999.90;;;2.90;99.90;;;;;;5056656;28;20486;-71